Time;durP1;ratioP1;P1;durP2;ratioP2;P2;SDS_P1;SDS_P2;PMS_P1;PMS_P2;Temp;Humidity;BMP_temperature;BMP_pressure;BME280_temperature;BME280_humidity;BME280_pressure;Samples;Min_cycle;Max_cycle;Signal;HPM_P1;HPM_P2
2023/06/16 00:00:14;;;;;;;4.47;2.00;;;;;;;20.72;87.91;99060.91;4954283;29;20457;-81
2023/06/16 00:02:43;;;;;;;4.30;2.08;;;;;;;20.93;87.66;99096.13;4954768;29;20031;-82
2023/06/16 00:05:10;;;;;;;3.85;2.53;;;;;;;20.58;88.22;99032.31;4954101;29;20090;-83
2023/06/16 00:07:36;;;;;;;3.33;2.53;;;;;;;21.14;87.07;99091.13;4954762;29;20027;-81
2023/06/16 00:10:11;;;;;;;2.90;1.80;;;;;;;21.07;86.36;99050.47;4954057;29;20395;-81
2023/06/16 00:12:37;;;;;;;7.00;2.33;;;;;;;21.33;85.96;99093.38;4935581;29;20032;-81
2023/06/16 00:15:02;;;;;;;3.35;1.58;;;;;;;21.34;85.34;99083.53;4935249;29;20032;-81
2023/06/16 00:17:28;;;;;;;6.15;3.88;;;;;;;21.24;85.56;99088.66;4935249;29;20055;-81
2023/06/16 00:19:57;;;;;;;4.03;2.60;;;;;;;21.39;85.31;99111.75;4948738;29;20039;-81
2023/06/16 00:22:25;;;;;;;3.88;2.60;;;;;;;21.33;84.76;99095.22;4953670;29;20043;-81
2023/06/16 00:24:52;;;;;;;1.75;1.60;;;;;;;20.95;85.70;99070.06;4933384;29;20047;-81
2023/06/16 00:27:18;;;;;;;3.40;1.92;;;;;;;20.88;86.99;99092.88;4954357;29;20035;-81
2023/06/16 00:29:43;;;;;;;4.95;2.80;;;;;;;21.00;87.84;99101.94;4954197;29;20552;-81
2023/06/16 00:32:09;;;;;;;4.50;2.88;;;;;;;20.91;87.93;99100.72;4953498;29;20035;-80
2023/06/16 00:34:34;;;;;;;3.90;2.20;;;;;;;20.84;88.36;99092.25;4953793;29;20038;-81
2023/06/16 00:36:59;;;;;;;7.78;4.18;;;;;;;20.83;87.33;99085.16;4953694;29;20042;-80
2023/06/16 00:39:25;;;;;;;4.75;2.63;;;;;;;20.92;87.71;99097.94;4953595;28;20063;-80
2023/06/16 00:41:50;;;;;;;3.33;2.72;;;;;;;20.68;88.76;99070.09;4953858;29;20053;-81
2023/06/16 00:44:17;;;;;;;3.92;3.15;;;;;;;20.82;88.48;99079.91;4932920;29;20050;-80
2023/06/16 00:46:43;;;;;;;3.30;2.53;;;;;;;20.67;89.15;99079.97;4934518;29;20032;-80
2023/06/16 00:49:09;;;;;;;3.08;2.10;;;;;;;20.33;89.95;99050.03;4937971;29;20068;-80
2023/06/16 00:51:34;;;;;;;4.10;3.13;;;;;;;20.46;90.26;99079.53;4953615;29;20114;-81
2023/06/16 00:54:00;;;;;;;8.70;3.55;;;;;;;20.41;91.08;99075.44;4952643;29;20038;-80
2023/06/16 00:56:26;;;;;;;4.43;3.35;;;;;;;20.49;91.50;99086.50;4953451;29;20043;-80
2023/06/16 00:58:53;;;;;;;4.50;2.72;;;;;;;20.34;93.08;99083.88;4953337;29;20035;-80
2023/06/16 01:01:20;;;;;;;3.25;2.25;;;;;;;20.09;94.21;99073.88;4952208;29;20420;-80
2023/06/16 01:03:46;;;;;;;4.45;2.40;;;;;;;19.88;95.20;99054.72;4952955;29;20512;-80
2023/06/16 01:06:29;;;;;;;3.38;1.90;;;;;;;19.97;95.75;99072.88;4953205;29;20035;-81
2023/06/16 01:09:05;;;;;;;4.53;3.13;;;;;;;20.01;96.09;99076.19;4953070;29;20042;-80
2023/06/16 01:11:41;;;;;;;3.67;2.92;;;;;;;20.19;94.75;99075.00;4953575;29;20143;-80
2023/06/16 01:14:19;;;;;;;3.95;2.67;;;;;;;20.35;93.04;99071.34;4953448;29;20042;-81
2023/06/16 01:16:47;;;;;;;7.00;2.92;;;;;;;20.23;92.02;99043.53;4953198;29;20066;-81
2023/06/16 01:19:28;;;;;;;6.25;2.72;;;;;;;20.39;92.03;99088.94;4952833;29;20089;-79
2023/06/16 01:22:09;;;;;;;5.88;3.50;;;;;;;20.21;91.92;99073.09;4953150;29;20069;-81
2023/06/16 01:24:36;;;;;;;3.38;2.33;;;;;;;20.06;93.54;99078.59;4953011;29;20035;-81
2023/06/16 01:27:05;;;;;;;4.97;3.15;;;;;;;20.10;93.29;99064.06;4951578;29;20057;-81
2023/06/16 01:29:36;;;;;;;4.20;2.42;;;;;;;20.22;92.18;99090.03;4953110;29;20027;-81
2023/06/16 01:32:03;;;;;;;4.30;2.47;;;;;;;19.96;92.67;99049.72;4952715;29;20043;-81
2023/06/16 01:34:31;;;;;;;5.97;3.53;;;;;;;20.06;93.01;99066.03;4935698;29;20421;-81
2023/06/16 01:36:59;;;;;;;2.50;2.28;;;;;;;20.17;92.41;99066.22;4952747;29;20039;-81
2023/06/16 01:39:26;;;;;;;4.10;2.47;;;;;;;20.36;91.01;99065.88;4953043;29;20031;-81
2023/06/16 01:41:54;;;;;;;4.95;2.80;;;;;;;20.67;89.85;99090.69;4952829;29;20178;-81
2023/06/16 01:44:20;;;;;;;5.68;3.47;;;;;;;20.57;89.17;99068.97;4952936;29;20062;-81
2023/06/16 01:46:47;;;;;;;4.15;2.22;;;;;;;20.60;89.09;99064.38;4952406;29;20066;-81
2023/06/16 01:49:12;;;;;;;6.85;3.30;;;;;;;20.61;88.18;99066.09;4951899;29;20038;-81
2023/06/16 01:51:38;;;;;;;4.60;3.17;;;;;;;20.38;88.11;99063.09;4951051;28;20036;-81
2023/06/16 01:54:04;;;;;;;2.17;1.60;;;;;;;20.37;89.06;99090.84;4951858;29;20030;-81
2023/06/16 01:56:30;;;;;;;5.47;3.70;;;;;;;20.38;89.31;99082.69;4951731;29;20035;-80
2023/06/16 01:58:55;;;;;;;5.47;3.08;;;;;;;20.34;89.46;99081.22;4951593;29;20413;-80
2023/06/16 02:01:29;;;;;;;4.20;3.25;;;;;;;20.49;88.98;99098.06;4951192;29;20027;-81
2023/06/16 02:04:14;;;;;;;3.95;2.22;;;;;;;20.50;88.54;99073.00;4951859;29;20560;-80
2023/06/16 02:06:49;;;;;;;6.63;2.50;;;;;;;20.47;89.10;99070.53;4951637;29;20126;-81
2023/06/16 02:09:16;;;;;;;3.75;2.50;;;;;;;20.50;89.35;99064.97;4951873;29;20047;-80
2023/06/16 02:11:43;;;;;;;4.82;2.92;;;;;;;20.43;89.52;99052.94;4951540;29;20113;-80
2023/06/16 02:14:09;;;;;;;4.10;2.55;;;;;;;20.53;89.35;99088.88;4951752;29;20063;-80
2023/06/16 02:16:37;;;;;;;4.28;2.47;;;;;;;20.56;89.02;99098.56;4951698;29;20102;-81
2023/06/16 02:19:03;;;;;;;6.97;3.53;;;;;;;20.29;88.89;99053.84;4951954;29;20520;-81
2023/06/16 02:21:29;;;;;;;4.95;3.60;;;;;;;20.38;88.46;99065.78;4952060;29;20031;-80
2023/06/16 02:23:55;;;;;;;4.88;2.28;;;;;;;20.28;89.71;99089.63;4952400;29;20062;-80
2023/06/16 02:26:21;;;;;;;6.88;3.60;;;;;;;20.34;89.78;99089.25;4951612;29;20058;-81
2023/06/16 02:28:48;;;;;;;6.78;4.10;;;;;;;20.14;90.46;99076.25;4952253;29;20035;-82
2023/06/16 02:31:18;;;;;;;16.15;3.30;;;;;;;20.25;90.43;99091.63;4952305;29;20050;-81
2023/06/16 02:33:44;;;;;;;4.40;2.72;;;;;;;20.16;90.57;99075.22;4951859;29;20028;-80
2023/06/16 02:36:10;;;;;;;3.90;3.28;;;;;;;20.15;90.93;99073.47;4951067;29;20031;-81
2023/06/16 02:38:36;;;;;;;9.32;3.63;;;;;;;19.82;92.46;99065.81;4923860;29;20067;-81
2023/06/16 02:41:01;;;;;;;4.10;2.63;;;;;;;19.75;93.17;99048.38;4937661;29;20091;-79
2023/06/16 02:43:27;;;;;;;3.30;2.22;;;;;;;20.03;92.57;99079.63;4896982;29;1187500;-80
2023/06/16 02:45:53;;;;;;;5.72;3.17;;;;;;;20.01;92.43;99076.19;4940025;29;20055;-80
2023/06/16 02:48:19;;;;;;;6.63;3.35;;;;;;;20.09;92.33;99078.38;4958216;29;20505;-80
2023/06/16 02:50:44;;;;;;;7.50;4.20;;;;;;;19.87;92.23;99054.81;4957433;29;20039;-79
2023/06/16 02:53:10;;;;;;;6.05;3.60;;;;;;;20.02;92.62;99072.56;4958871;29;20123;-79
2023/06/16 02:55:35;;;;;;;4.57;3.08;;;;;;;19.82;93.13;99068.50;4955756;29;20023;-80
2023/06/16 02:58:01;;;;;;;5.15;3.53;;;;;;;19.83;93.91;99063.03;4951865;29;20031;-81
2023/06/16 03:00:27;;;;;;;5.80;4.25;;;;;;;19.90;94.19;99073.34;4951119;29;20434;-80
2023/06/16 03:02:52;;;;;;;7.38;4.78;;;;;;;19.60;94.97;99044.84;4950768;28;20039;-81
2023/06/16 03:05:18;;;;;;;6.00;3.70;;;;;;;19.64;95.14;99047.22;4955605;29;20035;-81
2023/06/16 03:07:44;;;;;;;5.88;4.32;;;;;;;19.52;96.15;99048.00;4954809;29;20465;-81
2023/06/16 03:10:11;;;;;;;4.45;3.10;;;;;;;19.90;95.63;99078.72;4955262;29;20135;-80
2023/06/16 03:12:37;;;;;;;7.68;4.32;;;;;;;19.57;95.16;99015.63;4954633;29;20031;-81
2023/06/16 03:15:03;;;;;;;7.43;4.00;;;;;;;19.93;95.48;99084.72;4955518;29;20605;-81
2023/06/16 03:17:28;;;;;;;5.85;3.80;;;;;;;19.89;94.70;99056.41;4954889;29;20448;-82
2023/06/16 03:19:54;;;;;;;5.15;3.35;;;;;;;20.04;95.34;99089.38;4937343;29;20051;-81
2023/06/16 03:22:20;;;;;;;7.82;5.35;;;;;;;19.97;95.00;99061.28;4955034;29;20028;-80
2023/06/16 03:24:46;;;;;;;6.43;4.55;;;;;;;19.95;95.91;99071.22;4954177;29;20042;-80
2023/06/16 03:27:11;;;;;;;8.80;3.38;;;;;;;20.17;95.51;99098.38;4954417;29;20040;-81
2023/06/16 03:29:37;;;;;;;5.25;3.90;;;;;;;20.07;95.49;99073.13;4953733;29;20031;-82
2023/06/16 03:32:04;;;;;;;6.18;4.55;;;;;;;20.10;95.96;99077.44;4954655;29;20081;-81
2023/06/16 03:34:29;;;;;;;4.57;2.95;;;;;;;20.10;96.05;99080.13;4953584;29;20118;-80
2023/06/16 03:36:58;;;;;;;5.95;4.95;;;;;;;20.04;95.34;99062.63;4953602;29;20125;-80
2023/06/16 03:39:25;;;;;;;5.70;4.10;;;;;;;20.26;95.55;99098.72;4954541;29;20118;-81
2023/06/16 03:41:51;;;;;;;6.95;5.55;;;;;;;20.12;95.77;99083.53;4953937;29;20101;-82
2023/06/16 03:44:17;;;;;;;8.23;4.70;;;;;;;19.96;96.30;99060.44;4954172;29;20403;-80
2023/06/16 03:46:43;;;;;;;3.58;2.35;;;;;;;20.13;96.12;99078.09;4953343;29;20034;-80
2023/06/16 03:49:08;;;;;;;8.55;5.78;;;;;;;20.05;97.18;99091.13;4954449;29;20085;-80
2023/06/16 03:51:34;;;;;;;11.10;4.88;;;;;;;20.01;98.12;99085.06;4953036;29;20468;-81
2023/06/16 03:54:00;;;;;;;4.72;3.42;;;;;;;19.94;99.58;99093.59;4954857;29;20038;-81
2023/06/16 03:56:25;;;;;;;11.27;6.38;;;;;;;19.95;99.34;99082.78;4954012;29;20374;-82
2023/06/16 03:58:51;;;;;;;9.57;6.07;;;;;;;19.94;100.00;99065.03;4954428;29;20439;-82
2023/06/16 04:01:20;;;;;;;9.13;5.28;;;;;;;19.91;100.00;99077.72;4953748;29;20058;-82
2023/06/16 04:03:46;;;;;;;8.68;5.35;;;;;;;19.91;100.00;99067.03;4951957;29;20035;-81
2023/06/16 04:06:11;;;;;;;8.10;4.68;;;;;;;19.80;100.00;99091.78;4944701;29;20039;-81
2023/06/16 04:08:37;;;;;;;10.98;7.05;;;;;;;19.70;100.00;99071.91;4953875;29;20035;-81
2023/06/16 04:11:03;;;;;;;14.15;8.10;;;;;;;19.87;100.00;99081.59;4947869;29;20039;-81
2023/06/16 04:13:30;;;;;;;10.68;7.65;;;;;;;19.78;100.00;99094.56;4941877;28;20359;-81
2023/06/16 04:15:56;;;;;;;10.95;6.63;;;;;;;19.92;100.00;99077.63;4933402;29;20031;-81
2023/06/16 04:18:21;;;;;;;14.23;7.10;;;;;;;19.83;100.00;99062.16;4950401;29;20028;-82
2023/06/16 04:20:47;;;;;;;13.45;8.18;;;;;;;19.97;100.00;99096.06;4952258;29;20078;-80
2023/06/16 04:23:12;;;;;;;10.40;7.70;;;;;;;20.13;100.00;99059.34;4952795;29;20031;-81
2023/06/16 04:25:38;;;;;;;8.50;6.95;;;;;;;20.10;99.84;99062.22;4953977;29;20409;-81
2023/06/16 04:28:05;;;;;;;12.90;7.85;;;;;;;20.03;100.00;99071.59;4953484;29;20027;-81
2023/06/16 04:30:33;;;;;;;16.88;9.40;;;;;;;19.99;100.00;99070.09;4952232;29;20055;-82
2023/06/16 04:33:01;;;;;;;14.88;7.72;;;;;;;20.34;100.00;99083.88;4952778;29;20513;-82
2023/06/16 04:35:31;;;;;;;11.98;6.70;;;;;;;20.38;100.00;99076.50;4948136;29;20032;-81
2023/06/16 04:37:57;;;;;;;11.35;7.53;;;;;;;20.39;98.81;99063.00;4942827;29;20488;-82
2023/06/16 04:40:29;;;;;;;12.48;8.80;;;;;;;20.67;98.00;99100.56;4948831;29;20122;-82
2023/06/16 04:42:55;;;;;;;14.40;9.60;;;;;;;20.15;97.72;99036.00;4938997;29;20130;-81
2023/06/16 04:45:21;;;;;;;16.38;8.82;;;;;;;20.32;97.96;99074.22;4943017;29;20407;-81
2023/06/16 04:47:47;;;;;;;9.57;7.18;;;;;;;20.14;97.23;99036.97;4942776;29;20092;-81
2023/06/16 04:50:15;;;;;;;23.27;9.93;;;;;;;20.36;97.92;99076.59;4940794;29;20031;-81
2023/06/16 04:52:40;;;;;;;10.93;7.47;;;;;;;20.31;97.75;99072.50;4938488;29;20050;-80
2023/06/16 04:55:07;;;;;;;12.77;7.22;;;;;;;20.21;98.66;99073.09;4941475;29;20024;-81
2023/06/16 04:57:34;;;;;;;12.43;8.32;;;;;;;20.47;98.76;99097.31;4940984;29;20122;-80
2023/06/16 05:00:00;;;;;;;13.77;7.85;;;;;;;20.53;97.83;99086.22;4942684;29;20042;-83
2023/06/16 05:02:26;;;;;;;11.55;8.15;;;;;;;20.38;96.75;99028.28;4941170;29;20032;-84
2023/06/16 05:04:51;;;;;;;14.88;8.13;;;;;;;20.75;96.21;99061.53;4940415;29;20031;-84
2023/06/16 05:07:18;;;;;;;10.50;8.10;;;;;;;20.91;95.71;99090.00;4939853;29;20039;-81
2023/06/16 05:09:43;;;;;;;8.73;6.93;;;;;;;20.88;96.63;99061.59;4943472;29;20039;-82
2023/06/16 05:12:09;;;;;;;23.30;7.80;;;;;;;20.93;95.77;99064.81;4940184;29;20038;-80
2023/06/16 05:14:34;;;;;;;8.23;5.85;;;;;;;20.98;93.75;99051.09;4938992;29;20086;-83
2023/06/16 05:17:00;;;;;;;15.40;9.40;;;;;;;20.89;91.21;99022.25;4942186;29;20065;-81
2023/06/16 05:19:26;;;;;;;8.65;5.90;;;;;;;21.07;91.92;99081.78;4934264;29;20382;-82
2023/06/16 05:21:52;;;;;;;10.32;6.55;;;;;;;21.21;91.79;99089.75;4935237;29;20032;-83
2023/06/16 05:24:17;;;;;;;9.00;6.32;;;;;;;21.27;90.79;99056.25;4933939;29;20047;-84
2023/06/16 05:26:43;;;;;;;9.85;6.22;;;;;;;21.70;89.33;99101.59;4937270;28;20044;-85
2023/06/16 05:29:08;;;;;;;14.95;7.15;;;;;;;21.36;88.40;99068.19;4939266;29;20546;-81
2023/06/16 05:31:35;;;;;;;21.23;8.65;;;;;;;21.63;89.07;99098.47;4938321;29;20035;-82
2023/06/16 05:34:01;;;;;;;12.30;5.78;;;;;;;21.39;87.52;99081.38;4935772;29;20079;-82
2023/06/16 05:36:29;;;;;;;10.25;6.53;;;;;;;21.23;88.39;99054.78;4937580;29;20032;-83
2023/06/16 05:38:55;;;;;;;6.28;5.10;;;;;;;21.24;87.31;99033.22;4935240;29;20181;-82
2023/06/16 05:41:24;;;;;;;7.03;5.40;;;;;;;21.64;86.48;99084.09;4940766;29;20102;-84
2023/06/16 05:43:55;;;;;;;9.68;6.43;;;;;;;21.50;86.83;99081.50;4934402;29;20058;-84
2023/06/16 05:46:20;;;;;;;10.90;5.55;;;;;;;21.52;87.35;99058.13;4934129;29;20043;-83
2023/06/16 05:48:46;;;;;;;9.93;6.50;;;;;;;21.76;85.95;99089.56;4936266;29;20031;-84
2023/06/16 05:51:12;;;;;;;9.77;6.35;;;;;;;22.00;85.59;99074.38;4932855;29;20020;-85
2023/06/16 05:53:37;;;;;;;9.50;7.07;;;;;;;22.16;83.92;99082.19;4937999;29;20035;-84
2023/06/16 05:56:03;;;;;;;10.65;5.95;;;;;;;21.95;83.92;99073.88;4939415;29;20048;-83
2023/06/16 05:58:29;;;;;;;11.30;6.68;;;;;;;21.96;84.39;99098.88;4928765;29;20031;-83
2023/06/16 06:00:54;;;;;;;13.90;7.30;;;;;;;22.15;82.40;99101.09;4941125;29;20039;-82
2023/06/16 06:03:20;;;;;;;11.00;6.90;;;;;;;22.10;81.06;99053.09;4937960;29;20027;-83
2023/06/16 06:05:45;;;;;;;8.02;5.72;;;;;;;22.50;79.77;99073.50;4940234;29;20490;-82
2023/06/16 06:08:11;;;;;;;9.85;7.57;;;;;;;22.54;79.19;99061.56;4938962;29;20043;-82
2023/06/16 06:10:36;;;;;;;9.90;7.20;;;;;;;22.99;79.38;99103.94;4939238;29;20019;-81
2023/06/16 06:13:03;;;;;;;11.25;6.30;;;;;;;23.17;76.82;99093.59;4948228;29;20019;-81
2023/06/16 06:15:28;;;;;;;8.65;7.78;;;;;;;23.05;76.22;99101.63;4942418;29;20035;-82
2023/06/16 06:17:54;;;;;;;8.77;6.38;;;;;;;22.99;77.69;99094.00;4940163;29;20098;-81
2023/06/16 06:20:19;;;;;;;11.32;7.93;;;;;;;22.73;75.97;99104.03;4946153;29;20033;-81
2023/06/16 06:22:45;;;;;;;10.45;6.78;;;;;;;22.94;75.23;99095.31;4938650;29;20145;-82
2023/06/16 06:25:13;;;;;;;6.60;5.90;;;;;;;23.03;75.04;99089.25;4936838;29;20070;-82
2023/06/16 06:27:39;;;;;;;12.23;8.23;;;;;;;23.20;73.81;99083.50;4937658;29;21044;-82
2023/06/16 06:30:05;;;;;;;7.68;6.18;;;;;;;23.53;73.67;99103.34;4939353;29;20109;-82
2023/06/16 06:32:31;;;;;;;8.48;5.72;;;;;;;23.75;71.34;99080.13;4941755;29;20051;-82
2023/06/16 06:34:56;;;;;;;9.80;5.63;;;;;;;24.03;70.50;99086.88;4939952;29;20067;-83
2023/06/16 06:37:26;;;;;;;8.30;4.70;;;;;;;24.18;69.29;99081.25;4937819;29;20035;-82
2023/06/16 06:39:52;;;;;;;7.97;6.43;;;;;;;24.23;70.15;99085.25;4938766;29;20039;-83
2023/06/16 06:42:17;;;;;;;8.27;4.82;;;;;;;24.22;69.62;99039.59;4936906;29;20045;-82
2023/06/16 06:44:43;;;;;;;10.95;6.60;;;;;;;24.51;68.46;99063.28;4921008;29;20074;-83
2023/06/16 06:47:08;;;;;;;12.40;6.68;;;;;;;24.31;67.84;99052.31;4941701;29;20122;-84
2023/06/16 06:49:34;;;;;;;9.32;5.80;;;;;;;24.19;66.86;99077.56;4941479;29;20027;-84
2023/06/16 06:51:59;;;;;;;8.20;5.30;;;;;;;24.23;68.63;99079.03;4938327;29;20481;-84
2023/06/16 06:54:25;;;;;;;9.20;4.53;;;;;;;24.26;68.65;99068.00;4938871;29;20028;-84
2023/06/16 06:56:50;;;;;;;7.30;4.35;;;;;;;24.24;68.57;99105.84;4937956;29;20023;-82
2023/06/16 06:59:16;;;;;;;7.65;4.88;;;;;;;24.09;66.48;99080.16;4940316;29;20031;-84
2023/06/16 07:01:41;;;;;;;6.82;4.78;;;;;;;24.34;67.31;99060.13;4937285;29;20031;-84
2023/06/16 07:04:07;;;;;;;7.05;4.65;;;;;;;24.51;66.16;99091.09;4947784;29;20114;-84
2023/06/16 07:06:32;;;;;;;7.13;4.55;;;;;;;24.54;66.58;99077.34;4939389;29;20031;-84
2023/06/16 07:08:58;;;;;;;11.00;4.47;;;;;;;24.52;65.51;99076.63;4936181;29;20420;-84
2023/06/16 07:11:23;;;;;;;10.02;5.18;;;;;;;24.58;65.96;99076.16;4942228;29;20525;-83
2023/06/16 07:13:49;;;;;;;7.75;4.85;;;;;;;24.88;64.11;99068.31;4938884;29;20031;-84
2023/06/16 07:16:15;;;;;;;7.72;5.15;;;;;;;25.33;63.71;99093.28;4940274;29;20043;-83
2023/06/16 07:18:40;;;;;;;8.63;4.93;;;;;;;25.38;62.99;99079.38;4939457;29;20066;-83
2023/06/16 07:21:06;;;;;;;8.25;5.68;;;;;;;26.02;61.30;99089.09;4938136;29;20078;-85
2023/06/16 07:23:32;;;;;;;7.88;4.97;;;;;;;26.16;59.82;99057.28;4939741;29;20031;-85
2023/06/16 07:25:57;;;;;;;10.60;5.80;;;;;;;25.72;59.61;99049.44;4938888;29;20090;-83
2023/06/16 07:28:22;;;;;;;7.43;4.38;;;;;;;26.37;59.35;99076.97;4940139;29;20504;-82
2023/06/16 07:30:48;;;;;;;5.85;3.75;;;;;;;26.17;60.58;99078.75;4934776;29;20382;-81
2023/06/16 07:33:14;;;;;;;7.47;4.22;;;;;;;25.78;60.57;99069.63;4938857;29;20082;-83
2023/06/16 07:35:39;;;;;;;9.80;5.47;;;;;;;25.65;61.78;99069.84;4934913;29;20490;-79
2023/06/16 07:38:05;;;;;;;7.15;5.50;;;;;;;25.41;62.96;99041.31;4922603;29;20043;-80
2023/06/16 07:40:30;;;;;;;8.15;5.20;;;;;;;25.84;60.27;99060.97;4936758;29;20078;-81
2023/06/16 07:42:56;;;;;;;8.52;4.18;;;;;;;25.71;61.12;99045.00;4925207;29;20643;-79
2023/06/16 07:45:22;;;;;;;10.73;4.75;;;;;;;25.92;62.21;99064.72;4937381;29;20052;-80
2023/06/16 07:47:48;;;;;;;8.60;5.45;;;;;;;26.05;61.35;99064.50;4939886;28;20062;-80
2023/06/16 07:50:13;;;;;;;12.30;5.30;;;;;;;25.67;60.84;99059.75;4941347;29;20072;-81
2023/06/16 07:52:41;;;;;;;7.22;5.18;;;;;;;25.50;60.51;99072.03;4938567;29;20544;-81
2023/06/16 07:55:07;;;;;;;8.57;4.47;;;;;;;25.62;58.63;99052.06;4940526;29;20518;-83
2023/06/16 07:57:33;;;;;;;5.18;4.03;;;;;;;25.73;59.32;99053.81;4942597;29;20070;-82
2023/06/16 07:59:59;;;;;;;7.13;4.22;;;;;;;26.18;59.57;99083.19;4941786;29;20047;-82
2023/06/16 08:02:25;;;;;;;5.47;3.60;;;;;;;26.62;59.56;99067.47;4940034;29;20034;-82
2023/06/16 08:04:51;;;;;;;6.95;3.47;;;;;;;26.67;56.42;99061.66;4941681;29;20027;-83
2023/06/16 08:07:16;;;;;;;5.43;2.92;;;;;;;26.54;54.11;99042.09;4941093;29;20088;-82
2023/06/16 08:09:41;;;;;;;4.43;3.28;;;;;;;26.51;53.89;99054.06;4935465;29;20050;-82
2023/06/16 08:12:09;;;;;;;6.53;3.53;;;;;;;26.32;54.22;99054.91;4934885;29;20049;-82
2023/06/16 08:14:35;;;;;;;4.63;2.75;;;;;;;26.24;56.69;99060.13;4934681;29;20058;-82
2023/06/16 08:17:01;;;;;;;8.63;3.50;;;;;;;25.99;54.09;99029.91;4935045;29;20032;-82
2023/06/16 08:19:27;;;;;;;4.97;2.95;;;;;;;26.14;53.68;99060.13;4934719;29;20032;-82
2023/06/16 08:21:52;;;;;;;5.05;2.75;;;;;;;26.00;54.34;99004.63;4916908;29;20225;-82
2023/06/16 08:24:17;;;;;;;5.80;3.13;;;;;;;26.25;52.64;99048.34;4934810;29;20042;-82
2023/06/16 08:26:44;;;;;;;4.97;2.63;;;;;;;26.47;50.96;99043.69;4935139;29;20552;-82
2023/06/16 08:29:10;;;;;;;6.90;2.10;;;;;;;26.66;48.61;99064.50;4934659;29;20043;-82
2023/06/16 08:31:36;;;;;;;3.67;1.80;;;;;;;26.88;47.21;99052.53;4934630;29;20116;-82
2023/06/16 08:34:01;;;;;;;3.88;2.35;;;;;;;26.98;46.69;99050.69;4934811;29;20179;-82
2023/06/16 08:36:27;;;;;;;6.10;2.38;;;;;;;27.23;48.39;99046.50;4934289;29;20501;-82
2023/06/16 08:38:52;;;;;;;4.85;2.90;;;;;;;27.63;49.83;99053.56;4934540;29;20316;-83
2023/06/16 08:41:19;;;;;;;8.50;2.63;;;;;;;27.31;46.72;99046.69;4934051;29;20038;-80
2023/06/16 08:43:49;;;;;;;3.33;1.85;;;;;;;27.06;46.62;99039.16;4948234;29;20051;-80
2023/06/16 08:46:15;;;;;;;6.57;2.40;;;;;;;26.74;47.39;99049.28;4916608;29;20150;-80
2023/06/16 08:48:41;;;;;;;4.95;3.35;;;;;;;27.10;48.04;99048.69;4946886;29;20090;-80
2023/06/16 08:51:10;;;;;;;3.83;2.67;;;;;;;27.49;46.13;99019.69;4950563;29;20035;-79
2023/06/16 08:53:38;;;;;;;4.28;3.10;;;;;;;27.57;46.41;99010.81;4953278;29;20031;-79
2023/06/16 08:56:05;;;;;;;4.20;2.47;;;;;;;26.96;48.28;99004.84;4952136;29;20057;-81
2023/06/16 08:58:32;;;;;;;5.70;3.60;;;;;;;26.95;50.58;99027.47;4952800;29;20035;-79
2023/06/16 09:00:59;;;;;;;4.97;2.13;;;;;;;27.01;48.85;98980.03;4952484;28;20042;-80
2023/06/16 09:03:26;;;;;;;4.70;2.92;;;;;;;27.33;49.33;99014.91;4952694;29;20027;-80
2023/06/16 09:05:52;;;;;;;4.63;2.67;;;;;;;27.46;48.41;98971.22;4952417;29;20023;-79
2023/06/16 09:08:20;;;;;;;3.70;2.63;;;;;;;27.31;50.60;98984.41;4950034;29;20031;-80
2023/06/16 09:10:50;;;;;;;13.68;3.72;;;;;;;27.12;52.27;99003.38;4943554;29;20160;-79
2023/06/16 09:13:17;;;;;;;5.88;3.13;;;;;;;26.60;52.91;98982.91;4952429;29;20047;-78
2023/06/16 09:15:46;;;;;;;3.53;1.98;;;;;;;26.70;53.78;99004.56;4946601;29;20450;-78
2023/06/16 09:18:11;;;;;;;3.50;2.83;;;;;;;26.93;53.37;98980.78;4936146;29;20548;-79
2023/06/16 09:20:41;;;;;;;3.03;1.83;;;;;;;27.21;50.95;98970.03;4942754;29;20101;-79
2023/06/16 09:23:08;;;;;;;3.63;2.28;;;;;;;27.13;50.38;98950.97;4936663;29;20035;-79
2023/06/16 09:25:38;;;;;;;2.70;2.00;;;;;;;27.61;48.49;98971.59;4937750;29;20063;-80
2023/06/16 09:28:10;;;;;;;4.18;1.83;;;;;;;27.98;48.43;98999.69;4940621;29;20031;-79
2023/06/16 09:30:36;;;;;;;2.08;1.63;;;;;;;27.70;48.05;98975.28;4951076;29;20118;-78
2023/06/16 09:33:11;;;;;;;2.92;2.15;;;;;;;27.10;47.76;98987.28;4952732;29;20089;-80
2023/06/16 09:35:40;;;;;;;3.67;2.45;;;;;;;27.44;47.75;98975.97;4934415;29;20081;-82
2023/06/16 09:38:06;;;;;;;3.30;2.28;;;;;;;27.55;49.13;98976.78;4952383;29;20465;-79
2023/06/16 09:40:33;;;;;;;2.45;1.42;;;;;;;27.17;48.40;98968.59;4951970;29;20035;-79
2023/06/16 09:43:07;;;;;;;3.80;2.03;;;;;;;27.34;50.17;99002.19;4951738;29;20043;-82
2023/06/16 09:45:33;;;;;;;1.60;1.30;;;;;;;27.13;49.34;98983.44;4952383;29;20035;-81
2023/06/16 09:48:06;;;;;;;2.17;1.60;;;;;;;27.08;50.45;98988.41;4951931;29;20031;-82
2023/06/16 09:50:32;;;;;;;3.25;1.52;;;;;;;26.54;49.78;98963.69;4952007;29;20027;-82
2023/06/16 09:52:58;;;;;;;3.53;2.08;;;;;;;26.62;49.40;98990.88;4951707;29;20089;-83
2023/06/16 09:55:27;;;;;;;4.10;2.03;;;;;;;26.37;49.65;98930.09;4952046;29;20066;-82
2023/06/16 09:57:53;;;;;;;1.77;1.55;;;;;;;26.52;50.39;98981.91;4951609;29;20070;-83
2023/06/16 10:00:19;;;;;;;2.38;1.27;;;;;;;26.80;50.59;98996.44;4951638;29;20413;-83
2023/06/16 10:02:48;;;;;;;2.15;1.25;;;;;;;27.04;47.41;99003.25;4951222;29;20042;-82
2023/06/16 10:05:18;;;;;;;3.78;1.33;;;;;;;27.06;47.25;98979.59;4951878;29;20031;-82
2023/06/16 10:07:48;;;;;;;2.03;1.33;;;;;;;26.94;47.12;98970.78;4934277;29;20508;-84
2023/06/16 10:10:15;;;;;;;3.08;1.40;;;;;;;26.80;46.24;98988.31;4951633;29;20043;-84
2023/06/16 10:12:49;;;;;;;1.38;1.10;;;;;;;26.78;46.84;98971.41;4950866;28;20035;-83
2023/06/16 10:15:27;;;;;;;1.80;1.15;;;;;;;26.60;46.08;98968.53;4951894;29;20560;-83
2023/06/16 10:18:03;;;;;;;1.40;1.02;;;;;;;26.95;44.91;98994.16;4951224;29;20532;-83
2023/06/16 10:20:33;;;;;;;1.63;1.17;;;;;;;26.30;46.46;98967.69;4951015;29;20122;-85
2023/06/16 10:23:00;;;;;;;3.92;1.27;;;;;;;25.97;46.23;98947.28;4951557;29;20027;-82
2023/06/16 10:25:26;;;;;;;3.13;1.05;;;;;;;26.04;46.60;98968.22;4951404;29;20074;-81
2023/06/16 10:27:53;;;;;;;1.75;1.27;;;;;;;26.18;47.51;98976.91;4951171;29;20501;-80
2023/06/16 10:30:19;;;;;;;2.88;2.05;;;;;;;26.30;48.13;98981.19;4951186;29;20027;-79
2023/06/16 10:32:49;;;;;;;1.83;1.00;;;;;;;26.53;50.21;98980.94;4949666;29;20027;-79
2023/06/16 10:35:17;;;;;;;2.42;1.58;;;;;;;26.54;49.43;98959.16;4950881;29;20057;-79
2023/06/16 10:37:47;;;;;;;2.63;1.65;;;;;;;26.55;49.69;98941.06;4951028;29;20086;-79
2023/06/16 10:40:14;;;;;;;2.42;1.10;;;;;;;26.54;49.81;98948.34;4951461;29;20090;-81
2023/06/16 10:42:41;;;;;;;3.15;1.65;;;;;;;26.73;51.43;98915.03;4950690;29;20441;-79
2023/06/16 10:45:26;;;;;;;2.70;1.45;;;;;;;27.14;46.37;98963.47;4951273;29;20425;-79
2023/06/16 10:48:01;;;;;;;6.10;2.15;;;;;;;27.07;46.80;98933.44;4950638;29;20050;-79
2023/06/16 10:50:39;;;;;;;2.33;1.42;;;;;;;27.38;46.96;98956.75;4950923;29;20047;-79
2023/06/16 10:53:14;;;;;;;2.05;1.20;;;;;;;27.26;45.46;98910.03;4949250;29;20031;-79
2023/06/16 10:55:42;;;;;;;1.88;1.33;;;;;;;27.20;45.97;98930.41;4936901;29;20041;-80
2023/06/16 10:58:13;;;;;;;2.03;1.40;;;;;;;26.99;47.32;98949.56;4933167;29;20034;-79
2023/06/16 11:00:44;;;;;;;2.80;1.45;;;;;;;27.04;49.77;98922.06;4946624;29;20090;-79
2023/06/16 11:03:10;;;;;;;2.55;1.45;;;;;;;27.20;48.52;98927.69;4938315;29;20039;-79
2023/06/16 11:05:44;;;;;;;2.60;1.55;;;;;;;27.48;49.20;98922.34;4946498;29;20474;-78
2023/06/16 11:08:10;;;;;;;4.30;2.15;;;;;;;27.74;48.24;98946.03;4949499;29;20577;-79
2023/06/16 11:10:51;;;;;;;3.45;1.80;;;;;;;27.32;49.11;98945.50;4949261;29;20038;-78
2023/06/16 11:13:25;;;;;;;3.15;1.83;;;;;;;27.37;49.91;98930.66;4950746;29;20118;-78
2023/06/16 11:15:55;;;;;;;2.40;1.50;;;;;;;27.37;50.59;98934.22;4951888;29;20186;-78
2023/06/16 11:18:27;;;;;;;2.35;1.10;;;;;;;27.05;50.34;98903.00;4951287;29;20507;-79
2023/06/16 11:20:57;;;;;;;2.63;1.42;;;;;;;27.17;51.20;98925.28;4951161;29;20145;-81
2023/06/16 11:23:23;;;;;;;2.15;1.70;;;;;;;27.26;51.95;98912.72;4951060;28;20031;-81
2023/06/16 11:25:50;;;;;;;2.40;1.63;;;;;;;27.20;51.54;98905.19;4955406;29;20031;-81
2023/06/16 11:28:21;;;;;;;4.72;1.88;;;;;;;27.12;51.69;98919.47;4954756;29;20075;-81
2023/06/16 11:30:48;;;;;;;3.80;2.10;;;;;;;26.90;53.38;98924.25;4955107;29;20034;-82